Archival Weather

Norman Y Mineta San Jose Intl

San Jose, California (KSJC)

Report from: Wednesday, February 28, 2024 9:53 AM PST
Current time: Friday, June 14, 2024 5:15 AM PDT

Current weather – Weather history – Daily summaries
Weather forecast

Temperature14.4°C (57.9°F)
Dew point3.9°C (39.0°F)
Winds 3 kts (1.5 m/s, 3.5 mph) South (170°)
Visibility10 mi. (16.1 km)
Clouds Sky clear
Altimeter30.09 in.Hg (1019 mB)
Relative humidity49 %
Density altitude-135 ft. (-41 m)
Sea-level pressure101.9 kPa (1019 mB, 30.08 in.Hg)
Max temp last 6 hours14.4°C (57.9°F)
Min temp last 6 hours5.6°C (42.1°F)
Remarks Automated weather observing station with precipitation discriminator
Pressure rising more slowly
Flight conditions Visual Meteorological Conditions
Raw dataKSJC 281753Z 17003KT 10SM CLR 14/04 A3009 RMK AO2 SLP187 T01440039 10144 20056 51004
An error has occurred. This application may no longer respond until reloaded. Reload 🗙